Sunday, February 1, 2015, 5:41 PM EST

KPHF, Williamsburg International Airport

Location: Newport News, VA, United States Lat: 37.133
Local Time: 5:41 PM EST (22:41 GMT) Lon: -76.5
Time Zone: US/Eastern Elev: 42 ft

Show me the last for .
Show Decoded

2015-02-01 16:54 METAR KPHF 012154Z AUTO 10004KT 10SM CLR 07/M01 A3012 RMK AO2 SLP199 T00721011
                 TSNO =
2015-02-01 15:54 METAR KPHF 012054Z AUTO 09006KT 10SM CLR 08/M01 A3013 =
2015-02-01 14:54 METAR KPHF 011954Z 14007KT 10SM CLR 09/M04 A3016 RMK AO2 SLP212 T00941039 =
2015-02-01 13:54 METAR KPHF 011854Z 15005KT 10SM FEW110 09/M04 A3018 RMK AO2 SLP218 T00891039 =
2015-02-01 12:54 METAR KPHF 011754Z 13006KT 10SM SCT110 09/M04 A3021 RMK AO2 PRESFR SLP230
                 T00891039 10089 21022 58033 =
2015-02-01 11:54 METAR KPHF 011654Z 13006KT 10SM BKN090 08/M04 A3027 RMK AO2 SLP249 T00781044 =
2015-02-01 10:54 METAR KPHF 011554Z 14010KT 10SM FEW095 BKN120 07/M04 A3029 RMK AO2 SLP256
                 T00671044 =
2015-02-01 09:54 METAR KPHF 011454Z 14008KT 10SM CLR 06/M04 A3031 RMK AO2 SLP263 T00561044 51004
                 =
2015-02-01 08:54 METAR KPHF 011354Z 10005KT 10SM CLR 03/M03 A3030 RMK AO2 SLP260 T00281033 =
2015-02-01 07:54 METAR KPHF 011254Z 00000KT 10SM OVC090 00/M04 A3032 RMK AO2 SLP266 T00001039 =
2015-02-01 06:54 METAR KPHF 011154Z 07003KT 10SM FEW110 M02/M06 A3030 RMK AO2 SLP259 60000
                 T10221056 11022 21044 50010 =
2015-02-01 05:54 METAR KPHF 011054Z 00000KT 10SM CLR M03/M08 A3030 =
2015-02-01 04:54 METAR KPHF 010954Z 00000KT 10SM UP CLR M03/M07 A3029 RMK AO2 UPB50 SLP256 P0000
                 T10331072 =
2015-02-01 03:54 METAR KPHF 010854Z 00000KT 10SM CLR M03/M07 A3027 RMK AO2 SLP249 60000 T10331072
                 50001 =
2015-02-01 02:54 METAR KPHF 010754Z 00000KT 10SM CLR M04/M07 A3027 RMK AO2 UPB03E14 SLP251 P0000
                 T10391072 =
2015-02-01 01:54 METAR KPHF 010654Z 00000KT 10SM CLR M04/M08 A3027 RMK AO2 UPB13E19 SLP249 P0000
                 T10391078 =
2015-02-01 00:54 METAR KPHF 010554Z 00000KT 10SM CLR M03/M07 A3026 RMK AO2 SLP248 60000 T10281072
                 10000 21039 58007 =
2015-01-31 23:54 METAR KPHF 010454Z 06004KT 10SM CLR M03/M08 A3027 RMK AO2 UPB12E21 SLP250 P0000
                 T10331083 400501044 =
2015-01-31 22:54 METAR KPHF 010354Z 00000KT 10SM CLR M03/M08 A3028 =
2015-01-31 21:54 METAR KPHF 010254Z 00000KT 10SM CLR M03/M09 A3029 =
2015-01-31 20:54 METAR KPHF 010154Z 00000KT 10SM CLR M02/M09 A3029 RMK AO2 SLP259 T10171094 =
2015-01-31 19:54 METAR KPHF 010054Z 00000KT 10SM CLR M02/M10 A3030 RMK AO2 SLP261 T10171100 =
2015-01-31 18:54 METAR KPHF 312354Z 00000KT 10SM CLR 00/M11 A3030 RMK AO2 SLP260 T00001106 10050
                 21006 53007 =
2015-01-31 17:54 METAR KPHF 312254Z 25003KT 10SM CLR 02/M13 A3029 RMK AO2 SLP257 T00221128 =

Support USWX by starting your Amazon purchase here.